Portada
METAR-TAF:

METAR-TAF

Aeroports :

Northolt, Anglaterra

latitud: 51-33N, longitud: 000-25W, altitud: 38 m

Observació

L'informe es va fer fa 57 minuts, a les 20:50 UTC
Vent 3 kt del Nord-Oest
Temperatura 14°C
Humitat 63%
Pressió 1022 hPa
Visibilitat 10 km o més

METAR: EGWU 102050Z AUTO 32003KT 9999 // NCD 14/07 Q1022

Hora: 22:47 (21:47 UTC)

Pronòstic

L'informe es va fer fa 2 hores i 17 minuts, a les 19:30 UTC
Pronòstic vàlid del 10 a les 21 UTC al 11 a les 15 UTC
Vent 6 kt del Nord/Nord-Oest
Visibilitat 10 km o més
sense núvols per sota de 1500 mi sense presència de cumulonimbus.

TAF: EGWU 101930Z 1021/1115 33006KT CAVOK

Observacions i pronòstics meteorològics de més de 4000 aeroports (METAR i TAF).

Les estacions disponibles són els punts grocs i vermells al mapa.

Posi el ratolí al punt desitjat per veure el nom de l'estació.

Feu clic per veure les observacions i els pronòstics meteorològics.

Per canviar el mapa: feu clic els botons verds amb una creu de color negre per apropar; al botó verd amb un guió per allunyar la imatge; o en les fletxes verdes per a mapes adjacents.


METAR-TAF: